createdAt,value
2017-11-05T00:00:14.952Z,12.6
2017-11-05T00:01:17.010Z,12.7
2017-11-05T00:02:18.999Z,12.7
2017-11-05T00:03:20.902Z,12.7
2017-11-05T00:04:22.881Z,12.7
2017-11-05T00:05:24.762Z,12.6
2017-11-05T00:06:26.625Z,12.6
2017-11-05T00:07:28.554Z,12.7
2017-11-05T00:08:30.476Z,12.7
2017-11-05T00:09:32.405Z,12.7
2017-11-05T00:10:34.376Z,12.7
2017-11-05T00:11:36.294Z,12.7
2017-11-05T00:12:38.205Z,12.8
2017-11-05T00:13:40.156Z,12.8
2017-11-05T00:14:42.031Z,12.8
2017-11-05T00:15:43.966Z,12.8
2017-11-05T00:16:45.915Z,12.9
2017-11-05T00:17:48.150Z,12.8
2017-11-05T00:18:50.110Z,12.7
2017-11-05T00:19:52.004Z,12.7
2017-11-05T00:20:53.869Z,12.9
2017-11-05T00:21:55.798Z,12.9
2017-11-05T00:22:58.015Z,12.9
2017-11-05T00:23:59.884Z,12.8
2017-11-05T00:25:01.978Z,12.8
2017-11-05T00:26:04.027Z,12.8
2017-11-05T00:27:05.921Z,12.7
2017-11-05T00:28:08.167Z,12.7
2017-11-05T00:29:10.194Z,12.7
2017-11-05T00:30:12.203Z,12.8
2017-11-05T00:31:14.107Z,12.9
2017-11-05T00:32:16.204Z,12.9
2017-11-05T00:33:18.572Z,12.9
2017-11-05T00:34:20.596Z,12.9
2017-11-05T00:35:22.550Z,12.8
2017-11-05T00:36:24.446Z,12.9
2017-11-05T00:37:26.397Z,12.9
2017-11-05T00:38:28.954Z,12.9
2017-11-05T00:39:30.900Z,12.9
2017-11-05T00:40:33.014Z,12.9
2017-11-05T00:41:34.923Z,12.8
2017-11-05T00:42:36.857Z,12.9
2017-11-05T00:43:39.042Z,12.9
2017-11-05T00:44:40.988Z,12.9
2017-11-05T00:45:42.970Z,12.9
2017-11-05T00:46:44.862Z,13
2017-11-05T00:47:46.855Z,12.9
2017-11-05T00:48:48.827Z,12.9
2017-11-05T00:49:50.738Z,13
2017-11-05T00:50:52.639Z,12.9
2017-11-05T00:51:54.491Z,13
2017-11-05T00:52:56.427Z,13
2017-11-05T00:53:58.375Z,13
2017-11-05T00:55:00.324Z,13.1
2017-11-05T00:56:02.229Z,12.9
2017-11-05T00:57:04.203Z,12.9
2017-11-05T00:58:06.258Z,13
2017-11-05T00:59:08.237Z,13
2017-11-05T01:00:10.184Z,13
2017-11-05T01:01:12.136Z,13
2017-11-05T01:02:14.115Z,13
2017-11-05T01:03:16.128Z,13
2017-11-05T01:04:18.374Z,13.1
2017-11-05T01:05:20.236Z,13
2017-11-05T01:06:22.189Z,13
2017-11-05T01:07:24.012Z,13
2017-11-05T01:08:25.864Z,13
2017-11-05T01:09:27.778Z,12.9
2017-11-05T01:10:29.621Z,13
2017-11-05T01:11:31.589Z,13
2017-11-05T01:12:33.547Z,13
2017-11-05T01:13:35.423Z,13.1
2017-11-05T01:14:37.385Z,13.2
2017-11-05T01:15:39.375Z,13
2017-11-05T01:16:41.344Z,13.1
2017-11-05T01:17:43.256Z,13
2017-11-05T01:18:45.138Z,12.9
2017-11-05T01:19:47.389Z,13
2017-11-05T01:20:49.280Z,13.1
2017-11-05T01:21:51.145Z,13.1
2017-11-05T01:22:53.038Z,13.1
2017-11-05T01:23:54.974Z,13.1
2017-11-05T01:24:56.871Z,13.1
2017-11-05T01:25:58.761Z,13
2017-11-05T01:27:00.678Z,13.1
2017-11-05T01:28:02.632Z,13.1
2017-11-05T01:29:04.533Z,13.1
2017-11-05T01:30:06.520Z,13
2017-11-05T01:31:08.465Z,12.9
2017-11-05T01:32:10.373Z,13
2017-11-05T01:33:12.306Z,13
2017-11-05T01:34:14.432Z,13.1
2017-11-05T01:35:16.324Z,13.1
2017-11-05T01:36:18.237Z,13.1
2017-11-05T01:37:20.144Z,13.2
2017-11-05T01:38:22.031Z,13.1
2017-11-05T01:39:23.941Z,13.1
2017-11-05T01:40:26.129Z,13.1
2017-11-05T01:41:28.076Z,13.2
2017-11-05T01:42:30.021Z,13.2
2017-11-05T01:43:31.923Z,13.2
2017-11-05T01:44:33.833Z,13.2
2017-11-05T01:45:35.791Z,13.1
2017-11-05T01:46:37.699Z,13.1
2017-11-05T01:47:39.631Z,13.1
2017-11-05T01:48:41.539Z,13.2
2017-11-05T01:49:43.481Z,13.1
2017-11-05T01:50:45.401Z,13.1
2017-11-05T01:51:47.339Z,13.1
2017-11-05T01:52:49.270Z,13.1
2017-11-05T01:53:51.233Z,13.1
2017-11-05T01:54:53.113Z,13.1
2017-11-05T01:55:55.092Z,13.1
2017-11-05T01:56:56.967Z,13.1
2017-11-05T01:57:59.149Z,13.1
2017-11-05T01:59:01.082Z,13.2
2017-11-05T02:00:03.029Z,13.2
2017-11-05T02:01:04.990Z,13.2
2017-11-05T02:02:06.872Z,13.2
2017-11-05T02:03:08.941Z,13.2
2017-11-05T02:04:10.893Z,13.1
2017-11-05T02:05:12.764Z,13.2
2017-11-05T02:06:14.674Z,13.2
2017-11-05T02:07:16.582Z,13.2
2017-11-05T02:08:18.525Z,13.2
2017-11-05T02:09:20.415Z,13.2
2017-11-05T02:10:22.260Z,13.1
2017-11-05T02:11:24.214Z,13.1
2017-11-05T02:12:26.148Z,13.1
2017-11-05T02:13:28.042Z,13.2
2017-11-05T02:14:29.956Z,13.2
2017-11-05T02:15:31.789Z,13.1
2017-11-05T02:16:33.752Z,13.2
2017-11-05T02:17:35.677Z,13.2
2017-11-05T02:18:37.670Z,13.1
2017-11-05T02:19:39.597Z,13
2017-11-05T02:20:41.511Z,13.1
2017-11-05T02:21:43.481Z,13.1
2017-11-05T02:22:45.409Z,13.1
2017-11-05T02:23:47.405Z,13
2017-11-05T02:24:49.333Z,13.1
2017-11-05T02:25:51.283Z,13.1
2017-11-05T02:26:53.206Z,13.1
2017-11-05T02:27:55.047Z,13.1
2017-11-05T02:28:57.018Z,13.2
2017-11-05T02:29:58.941Z,13.2
2017-11-05T02:31:00.866Z,13.2
2017-11-05T02:32:03.046Z,13.3
2017-11-05T02:33:04.910Z,13.2
2017-11-05T02:34:07.131Z,13.3
2017-11-05T02:35:09.029Z,13.2
2017-11-05T02:36:10.925Z,13.2
2017-11-05T02:37:12.921Z,13.1
2017-11-05T02:38:14.800Z,13
2017-11-05T02:39:16.763Z,13
2017-11-05T02:40:18.697Z,13
2017-11-05T02:41:20.796Z,13
2017-11-05T02:42:23.007Z,12.9
2017-11-05T02:43:24.913Z,12.8
2017-11-05T02:44:26.843Z,12.9
2017-11-05T02:45:28.719Z,12.9
2017-11-05T02:46:30.639Z,12.8
2017-11-05T02:47:32.600Z,12.7
2017-11-05T02:48:34.492Z,12.7
2017-11-05T02:49:36.382Z,12.7
2017-11-05T02:50:38.251Z,12.7
2017-11-05T02:51:40.132Z,12.6
2017-11-05T02:52:42.418Z,12.5
2017-11-05T02:53:44.280Z,12.5
2017-11-05T02:54:46.173Z,12.6
2017-11-05T02:55:48.065Z,12.5
2017-11-05T02:56:49.920Z,12.4
2017-11-05T02:57:51.844Z,12.4
2017-11-05T02:58:53.709Z,12.4
2017-11-05T02:59:55.608Z,12.4
2017-11-05T03:00:57.513Z,12.5
2017-11-05T03:01:59.461Z,12.4
2017-11-05T03:03:01.702Z,12.4
2017-11-05T03:04:03.656Z,12.4
2017-11-05T03:05:05.573Z,12.6
2017-11-05T03:06:07.531Z,12.6
2017-11-05T03:07:09.444Z,12.5
2017-11-05T03:08:11.381Z,12.6
2017-11-05T03:09:13.352Z,12.5
2017-11-05T03:10:15.234Z,12.6
2017-11-05T03:11:17.080Z,12.6
2017-11-05T03:12:18.991Z,12.6
2017-11-05T03:13:21.352Z,12.7
2017-11-05T03:14:23.289Z,12.7
2017-11-05T03:15:25.196Z,12.7
2017-11-05T03:16:27.146Z,12.7
2017-11-05T03:17:29.078Z,12.7
2017-11-05T03:18:31.085Z,12.7
2017-11-05T03:19:33.021Z,12.7
2017-11-05T03:20:34.923Z,12.7
2017-11-05T03:21:36.784Z,12.8
2017-11-05T03:22:38.702Z,12.8
2017-11-05T03:23:40.827Z,12.7
2017-11-05T03:24:42.750Z,12.8
2017-11-05T03:25:44.639Z,12.7
2017-11-05T03:26:46.539Z,12.9
2017-11-05T03:27:48.490Z,12.9
2017-11-05T03:28:50.473Z,12.9
2017-11-05T03:29:52.307Z,12.9
2017-11-05T03:30:54.184Z,12.9
2017-11-05T03:31:56.085Z,12.9
2017-11-05T03:32:58.034Z,12.9
2017-11-05T03:33:59.932Z,12.9
2017-11-05T03:35:01.840Z,13
2017-11-05T03:36:03.755Z,13
2017-11-05T03:37:05.673Z,13
2017-11-05T03:38:07.624Z,13
2017-11-05T03:39:09.555Z,13
2017-11-05T03:40:11.470Z,13
2017-11-05T03:41:13.406Z,13
2017-11-05T03:42:15.379Z,13
2017-11-05T03:43:17.275Z,13
2017-11-05T03:44:19.190Z,12.9
2017-11-05T03:45:21.157Z,13
2017-11-05T03:46:23.088Z,13
2017-11-05T03:47:24.959Z,13
2017-11-05T03:48:26.809Z,13
2017-11-05T03:49:28.727Z,13
2017-11-05T03:50:30.572Z,13.1
2017-11-05T03:51:32.513Z,13
2017-11-05T03:52:34.464Z,13.2
2017-11-05T03:53:36.425Z,13.1
2017-11-05T03:54:38.750Z,13.1
2017-11-05T03:55:40.701Z,13.1
2017-11-05T03:56:42.603Z,13
2017-11-05T03:57:44.543Z,13
2017-11-05T03:58:46.392Z,13
2017-11-05T03:59:48.311Z,12.9
2017-11-05T04:00:50.210Z,12.9
2017-11-05T04:01:52.119Z,12.9
2017-11-05T04:02:54.038Z,12.9
2017-11-05T04:03:55.990Z,13
2017-11-05T04:04:58.217Z,13
2017-11-05T04:06:00.072Z,13
2017-11-05T04:07:02.208Z,12.9
2017-11-05T04:08:04.278Z,12.9
2017-11-05T04:09:06.195Z,12.7
2017-11-05T04:10:08.313Z,12.8
2017-11-05T04:11:10.201Z,12.8
2017-11-05T04:12:12.086Z,12.8
2017-11-05T04:13:14.003Z,12.7
2017-11-05T04:14:15.902Z,12.6
2017-11-05T04:15:18.095Z,12.6
2017-11-05T04:16:20.001Z,12.6
2017-11-05T04:17:21.872Z,12.6
2017-11-05T04:18:23.794Z,12.6
2017-11-05T04:19:25.712Z,12.5
2017-11-05T04:20:27.630Z,12.4
2017-11-05T04:21:29.578Z,12.5
2017-11-05T04:22:31.499Z,12.5
2017-11-05T04:23:33.347Z,12.4
2017-11-05T04:24:35.325Z,12.4
2017-11-05T04:25:37.200Z,12.4
2017-11-05T04:26:39.102Z,12.4
2017-11-05T04:27:41.026Z,12.4
2017-11-05T04:28:42.879Z,12.3
2017-11-05T04:29:44.765Z,12.4
2017-11-05T04:30:46.696Z,12.4
2017-11-05T04:31:48.588Z,12.2
2017-11-05T04:32:50.530Z,12.2
2017-11-05T04:33:52.453Z,12.4
2017-11-05T04:34:54.349Z,12.2
2017-11-05T04:35:56.516Z,12.2
2017-11-05T04:36:58.402Z,12.3
2017-11-05T04:38:00.337Z,12.3
2017-11-05T04:39:02.307Z,12.2
2017-11-05T04:40:04.144Z,12.2
2017-11-05T04:41:06.344Z,12.2
2017-11-05T04:42:08.218Z,12.3
2017-11-05T04:43:10.181Z,12.3
2017-11-05T04:44:12.352Z,12.4
2017-11-05T04:45:14.281Z,12.2
2017-11-05T04:46:16.576Z,12.3
2017-11-05T04:47:18.538Z,12.2
2017-11-05T04:48:20.435Z,12.2
2017-11-05T04:49:22.311Z,12.2
2017-11-05T04:50:24.289Z,12.3
2017-11-05T04:51:26.202Z,12.2
2017-11-05T04:52:28.101Z,12.2
2017-11-05T04:53:30.195Z,12.2
2017-11-05T04:54:32.086Z,12.3
2017-11-05T04:55:33.960Z,12.3
2017-11-05T04:56:35.881Z,12.2
2017-11-05T04:57:37.752Z,12.2
2017-11-05T04:58:39.701Z,12.2
2017-11-05T04:59:41.620Z,12.2
2017-11-05T05:00:43.454Z,12.2
2017-11-05T05:01:45.366Z,12.2
2017-11-05T05:02:47.302Z,12.2
2017-11-05T05:03:49.165Z,12.1
2017-11-05T05:04:51.120Z,12.3
2017-11-05T05:05:52.977Z,12.2
2017-11-05T05:06:55.206Z,12.2
2017-11-05T05:07:57.096Z,12.1
2017-11-05T05:08:58.973Z,12.2
2017-11-05T05:10:00.821Z,12.1
2017-11-05T05:11:02.679Z,12.2
2017-11-05T05:12:04.651Z,12
2017-11-05T05:13:06.602Z,12
2017-11-05T05:14:08.501Z,12
2017-11-05T05:15:10.356Z,11.9
2017-11-05T05:16:12.315Z,11.9
2017-11-05T05:17:14.207Z,11.9
2017-11-05T05:18:16.135Z,11.9
2017-11-05T05:19:18.313Z,12
2017-11-05T05:20:20.240Z,12
2017-11-05T05:21:22.120Z,12
2017-11-05T05:22:24.474Z,12.1
2017-11-05T05:23:26.368Z,12.1
2017-11-05T05:24:28.261Z,12.1
2017-11-05T05:25:30.182Z,12.1
2017-11-05T05:26:32.081Z,12.1
2017-11-05T05:27:34.334Z,12.1
2017-11-05T05:28:36.180Z,12
2017-11-05T05:29:38.113Z,12.1
2017-11-05T05:30:40.055Z,12.1
2017-11-05T05:31:41.920Z,12.1
2017-11-05T05:32:43.821Z,12
2017-11-05T05:33:45.680Z,12.1
2017-11-05T05:34:47.525Z,12.1
2017-11-05T05:35:49.452Z,12.1
2017-11-05T05:36:51.336Z,12.1
2017-11-05T05:37:53.305Z,12
2017-11-05T05:38:55.250Z,12.1
2017-11-05T05:39:57.197Z,12.2
2017-11-05T05:40:59.122Z,12.1
2017-11-05T05:42:00.992Z,12.1
2017-11-05T05:43:03.213Z,12.1
2017-11-05T05:44:05.080Z,12.1
2017-11-05T05:45:06.970Z,12
2017-11-05T05:46:09.056Z,12
2017-11-05T05:47:10.998Z,11.9
2017-11-05T05:48:13.050Z,11.9
2017-11-05T05:49:14.998Z,11.9
2017-11-05T05:50:16.923Z,11.9
2017-11-05T05:51:18.827Z,11.9
2017-11-05T05:52:20.691Z,12
2017-11-05T05:53:22.623Z,11.9
2017-11-05T05:54:24.516Z,11.8
2017-11-05T05:55:26.400Z,11.9
2017-11-05T05:56:28.306Z,11.8
2017-11-05T05:57:30.230Z,11.9
2017-11-05T05:58:32.494Z,11.9
2017-11-05T05:59:34.404Z,11.9
2017-11-05T06:00:36.301Z,11.9
2017-11-05T06:01:38.159Z,11.8
2017-11-05T06:02:40.010Z,11.9
2017-11-05T06:03:41.962Z,11.9
2017-11-05T06:04:43.794Z,12
2017-11-05T06:05:45.704Z,11.9
2017-11-05T06:06:47.687Z,11.9
2017-11-05T06:07:49.674Z,11.9
2017-11-05T06:08:52.020Z,11.9
2017-11-05T06:09:53.876Z,11.9
2017-11-05T06:10:55.761Z,11.9
2017-11-05T06:11:57.657Z,12
2017-11-05T06:12:59.635Z,12
2017-11-05T06:14:01.845Z,12
2017-11-05T06:15:03.782Z,12.1
2017-11-05T06:16:05.733Z,12
2017-11-05T06:17:07.915Z,11.9
2017-11-05T06:18:09.815Z,11.9
2017-11-05T06:19:11.763Z,11.8
2017-11-05T06:20:13.619Z,11.8
2017-11-05T06:21:15.469Z,11.9
2017-11-05T06:22:17.431Z,11.8
2017-11-05T06:23:19.342Z,11.8
2017-11-05T06:24:21.570Z,11.9
2017-11-05T06:25:24.823Z,11.9
2017-11-05T06:26:28.288Z,11.9
2017-11-05T06:27:30.208Z,11.8
2017-11-05T06:28:32.040Z,11.9
2017-11-05T06:29:34.056Z,11.9
2017-11-05T06:30:35.979Z,11.8
2017-11-05T06:31:37.831Z,11.7
2017-11-05T06:32:39.777Z,11.8
2017-11-05T06:33:41.690Z,11.7
2017-11-05T06:34:43.576Z,11.6
2017-11-05T06:35:45.451Z,11.6
2017-11-05T06:36:47.308Z,11.6
2017-11-05T06:37:49.179Z,11.6
2017-11-05T06:38:51.189Z,11.5
2017-11-05T06:39:53.124Z,11.5
2017-11-05T06:40:54.991Z,11.6
2017-11-05T06:41:56.906Z,11.6
2017-11-05T06:42:58.842Z,11.6
2017-11-05T06:44:00.767Z,11.5
2017-11-05T06:45:02.962Z,11.6
2017-11-05T06:46:04.877Z,11.6
2017-11-05T06:47:06.791Z,11.7
2017-11-05T06:48:08.763Z,11.7
2017-11-05T06:49:10.647Z,11.7
2017-11-05T06:50:12.811Z,11.7
2017-11-05T06:51:14.736Z,11.7
2017-11-05T06:52:16.616Z,11.7
2017-11-05T06:53:18.556Z,11.7
2017-11-05T06:54:20.696Z,11.6
2017-11-05T06:55:22.616Z,11.6
2017-11-05T06:56:24.476Z,11.6
2017-11-05T06:57:26.360Z,11.6
2017-11-05T06:58:28.290Z,11.5
2017-11-05T06:59:30.181Z,11.5
2017-11-05T07:00:32.416Z,11.6
2017-11-05T07:01:34.367Z,11.6
2017-11-05T07:02:36.327Z,11.6
2017-11-05T07:03:38.251Z,11.6
2017-11-05T07:04:40.138Z,11.6
2017-11-05T07:05:42.510Z,11.6
2017-11-05T07:06:44.528Z,11.7
2017-11-05T07:07:46.558Z,11.7
2017-11-05T07:08:48.509Z,11.7
2017-11-05T07:09:50.441Z,11.7
2017-11-05T07:10:52.380Z,11.7
2017-11-05T07:11:54.229Z,11.7
2017-11-05T07:12:56.094Z,11.7
2017-11-05T07:13:58.040Z,11.7
2017-11-05T07:15:00.017Z,11.6
2017-11-05T07:16:02.211Z,11.6
2017-11-05T07:17:04.188Z,11.6
2017-11-05T07:18:06.117Z,11.6
2017-11-05T07:19:08.063Z,11.6
2017-11-05T07:20:09.976Z,11.6
2017-11-05T07:21:12.199Z,11.6
2017-11-05T07:22:14.212Z,11.6
2017-11-05T07:23:16.206Z,11.6
2017-11-05T07:24:18.120Z,11.6
2017-11-05T07:25:20.027Z,11.6
2017-11-05T07:26:22.250Z,11.6
2017-11-05T07:27:24.124Z,11.6
2017-11-05T07:28:26.042Z,11.6
2017-11-05T07:29:27.973Z,11.6
2017-11-05T07:30:29.797Z,11.5
2017-11-05T07:31:31.964Z,11.6
2017-11-05T07:32:33.941Z,11.6
2017-11-05T07:33:35.908Z,11.6
2017-11-05T07:34:38.497Z,11.6
2017-11-05T07:35:40.433Z,11.7
2017-11-05T07:36:42.700Z,11.7
2017-11-05T07:37:44.635Z,11.7
2017-11-05T07:38:46.566Z,11.7
2017-11-05T07:39:48.581Z,11.7
2017-11-05T07:40:50.447Z,11.7
2017-11-05T07:41:52.370Z,11.6
2017-11-05T07:42:54.351Z,11.8
2017-11-05T07:43:56.271Z,11.8
2017-11-05T07:44:58.173Z,11.8
2017-11-05T07:46:00.081Z,11.9
2017-11-05T07:47:02.053Z,11.9
2017-11-05T07:48:04.019Z,11.8
2017-11-05T07:49:05.911Z,11.7
2017-11-05T07:50:07.868Z,11.9
2017-11-05T07:51:09.740Z,11.8
2017-11-05T07:52:11.646Z,11.8
2017-11-05T07:53:13.583Z,11.8
2017-11-05T07:54:15.587Z,11.8
2017-11-05T07:55:17.601Z,11.7
2017-11-05T07:56:19.544Z,11.7
2017-11-05T07:57:21.415Z,11.7
2017-11-05T07:58:23.362Z,11.7
2017-11-05T07:59:25.437Z,11.8
2017-11-05T08:00:27.326Z,11.7
2017-11-05T08:01:29.263Z,11.7
2017-11-05T08:02:31.580Z,11.8
2017-11-05T08:03:33.549Z,11.8
2017-11-05T08:04:35.397Z,11.9
2017-11-05T08:05:37.291Z,11.8
2017-11-05T08:06:39.390Z,11.8
2017-11-05T08:07:41.261Z,11.9
2017-11-05T08:08:43.169Z,11.9
2017-11-05T08:09:45.084Z,11.9
2017-11-05T08:10:47.025Z,11.8
2017-11-05T08:11:48.934Z,12
2017-11-05T08:12:50.915Z,12.1
2017-11-05T08:13:52.774Z,12
2017-11-05T08:14:54.725Z,12.1
2017-11-05T08:15:56.608Z,12.1
2017-11-05T08:16:58.525Z,12.1
2017-11-05T08:18:00.933Z,12
2017-11-05T08:19:02.865Z,11.9
2017-11-05T08:20:04.786Z,12
2017-11-05T08:21:06.662Z,12
2017-11-05T08:22:08.615Z,11.9
2017-11-05T08:23:10.810Z,12
2017-11-05T08:24:12.748Z,11.9
2017-11-05T08:25:14.670Z,11.9
2017-11-05T08:26:16.566Z,12.1
2017-11-05T08:27:18.584Z,11.9
2017-11-05T08:28:20.811Z,12
2017-11-05T08:29:22.798Z,12
2017-11-05T08:30:24.744Z,11.9
2017-11-05T08:31:26.652Z,11.9
2017-11-05T08:32:28.632Z,12
2017-11-05T08:33:30.579Z,12
2017-11-05T08:34:32.424Z,12
2017-11-05T08:35:34.340Z,12
2017-11-05T08:36:36.323Z,12
2017-11-05T08:37:38.290Z,12.1
2017-11-05T08:38:40.250Z,12
2017-11-05T08:39:42.141Z,11.9
2017-11-05T08:40:44.049Z,11.8
2017-11-05T08:41:45.980Z,11.8
2017-11-05T08:42:47.844Z,11.9
2017-11-05T08:43:49.786Z,11.9
2017-11-05T08:44:51.676Z,11.9
2017-11-05T08:45:53.549Z,12
2017-11-05T08:46:55.528Z,11.9
2017-11-05T08:47:57.474Z,11.9
2017-11-05T08:48:59.713Z,11.9
2017-11-05T08:50:01.677Z,11.9
2017-11-05T08:51:03.629Z,12
2017-11-05T08:52:05.514Z,12
2017-11-05T08:53:07.432Z,11.9
2017-11-05T08:54:09.494Z,11.8
2017-11-05T08:55:11.460Z,11.9
2017-11-05T08:56:13.466Z,11.8
2017-11-05T08:57:15.351Z,11.9
2017-11-05T08:58:17.332Z,11.8
2017-11-05T08:59:19.350Z,11.9
2017-11-05T09:00:21.320Z,11.9
2017-11-05T09:01:23.254Z,12
2017-11-05T09:02:25.232Z,12
2017-11-05T09:03:27.218Z,12
2017-11-05T09:04:29.593Z,12
2017-11-05T09:05:31.579Z,12
2017-11-05T09:06:33.581Z,12.1
2017-11-05T09:07:35.631Z,12.2
2017-11-05T09:08:37.647Z,12.1
2017-11-05T09:09:39.945Z,12.1
2017-11-05T09:10:41.911Z,12
2017-11-05T09:11:43.874Z,12
2017-11-05T09:12:45.785Z,11.9
2017-11-05T09:13:47.686Z,12.1
2017-11-05T09:14:49.688Z,12
2017-11-05T09:15:51.631Z,12
2017-11-05T09:16:53.487Z,11.9
2017-11-05T09:17:55.388Z,11.8
2017-11-05T09:18:57.341Z,11.8
2017-11-05T09:19:59.327Z,11.9
2017-11-05T09:21:01.318Z,11.9
2017-11-05T09:22:03.206Z,11.9
2017-11-05T09:23:05.112Z,12
2017-11-05T09:24:07.090Z,11.9
2017-11-05T09:25:09.022Z,12
2017-11-05T09:26:11.110Z,12.1
2017-11-05T09:27:12.960Z,12.1
2017-11-05T09:28:14.919Z,12.2
2017-11-05T09:29:16.798Z,12.1
2017-11-05T09:30:19.016Z,12.3
2017-11-05T09:31:20.910Z,12.2
2017-11-05T09:32:22.810Z,12.2
2017-11-05T09:33:24.783Z,12.2
2017-11-05T09:34:26.703Z,12.2
2017-11-05T09:35:28.692Z,12.1
2017-11-05T09:36:31.281Z,12
2017-11-05T09:37:33.280Z,12.1
2017-11-05T09:38:35.193Z,12
2017-11-05T09:39:37.126Z,12
2017-11-05T09:40:39.099Z,11.9
2017-11-05T09:41:40.982Z,11.9
2017-11-05T09:42:42.849Z,12.1
2017-11-05T09:43:44.782Z,12
2017-11-05T09:44:46.741Z,12
2017-11-05T09:45:48.664Z,11.9
2017-11-05T09:46:50.603Z,12
2017-11-05T09:47:52.551Z,12.1
2017-11-05T09:48:54.503Z,12.1
2017-11-05T09:49:56.468Z,12.1
2017-11-05T09:50:58.483Z,12
2017-11-05T09:52:00.351Z,12
2017-11-05T09:53:02.253Z,12
2017-11-05T09:54:04.178Z,12
2017-11-05T09:55:06.081Z,12.1
2017-11-05T09:56:08.051Z,12.1
2017-11-05T09:57:10.003Z,12
2017-11-05T09:58:12.025Z,12
2017-11-05T09:59:14.068Z,12
2017-11-05T10:00:16.023Z,12
2017-11-05T10:01:17.977Z,12
2017-11-05T10:02:20.019Z,11.8
2017-11-05T10:03:21.909Z,11.9
2017-11-05T10:04:23.844Z,11.7
2017-11-05T10:05:25.778Z,11.6
2017-11-05T10:06:28.455Z,11.7
2017-11-05T10:07:30.441Z,11.7
2017-11-05T10:08:32.330Z,11.7
2017-11-05T10:09:34.255Z,11.6
2017-11-05T10:10:36.175Z,11.6
2017-11-05T10:11:38.139Z,11.6
2017-11-05T10:12:40.062Z,11.6
2017-11-05T10:13:41.931Z,11.8
2017-11-05T10:14:43.869Z,11.7
2017-11-05T10:15:45.786Z,11.6
2017-11-05T10:16:48.373Z,11.5
2017-11-05T10:17:50.296Z,11.5
2017-11-05T10:18:52.171Z,11.4
2017-11-05T10:19:54.141Z,11.4
2017-11-05T10:20:56.068Z,11.4
2017-11-05T10:21:58.004Z,11.5
2017-11-05T10:22:59.944Z,11.3
2017-11-05T10:24:01.953Z,11.3
2017-11-05T10:25:03.899Z,11.3
2017-11-05T10:26:05.907Z,11.2
2017-11-05T10:27:08.359Z,11.2
2017-11-05T10:28:10.273Z,11.3
2017-11-05T10:29:12.231Z,11.4
2017-11-05T10:30:14.168Z,11.3
2017-11-05T10:31:16.026Z,11.3
2017-11-05T10:32:18.235Z,11.3
2017-11-05T10:33:20.190Z,11.4
2017-11-05T10:34:22.139Z,11.4
2017-11-05T10:35:24.187Z,11.4
2017-11-05T10:36:26.026Z,11.3
2017-11-05T10:37:27.969Z,11
2017-11-05T10:38:29.828Z,11
2017-11-05T10:39:31.673Z,10.9
2017-11-05T10:40:33.592Z,11.1
2017-11-05T10:41:35.443Z,10.9
2017-11-05T10:42:37.750Z,10.7
2017-11-05T10:43:39.649Z,10.8
2017-11-05T10:44:41.533Z,10.6
2017-11-05T10:45:43.456Z,10.5
2017-11-05T10:46:45.344Z,10.6
2017-11-05T10:47:47.533Z,10.5
2017-11-05T10:48:49.534Z,10.5
2017-11-05T10:49:51.474Z,10.6
2017-11-05T10:50:53.410Z,10.6
2017-11-05T10:51:55.358Z,10.6
2017-11-05T10:52:57.332Z,10.6
2017-11-05T10:53:59.307Z,10.4
2017-11-05T10:55:01.220Z,10.3
2017-11-05T10:56:03.201Z,10.3
2017-11-05T10:57:05.398Z,10.3
2017-11-05T10:58:07.431Z,10.2
2017-11-05T10:59:09.415Z,10.1
2017-11-05T11:00:11.473Z,10.3
2017-11-05T11:01:13.499Z,10.3
2017-11-05T11:02:15.358Z,10.3
2017-11-05T11:03:17.339Z,10.1
2017-11-05T11:04:19.276Z,10.3
2017-11-05T11:05:21.321Z,10.1
2017-11-05T11:06:23.327Z,10.1
2017-11-05T11:07:25.645Z,10.2
2017-11-05T11:08:27.657Z,10
2017-11-05T11:09:29.600Z,10.3
2017-11-05T11:10:31.514Z,10.3
2017-11-05T11:11:33.510Z,10.4
2017-11-05T11:12:35.566Z,10.3
2017-11-05T11:13:37.483Z,10.4
2017-11-05T11:14:39.455Z,10.3
2017-11-05T11:15:41.398Z,10.1
2017-11-05T11:16:43.327Z,10
2017-11-05T11:17:45.286Z,10.2
2017-11-05T11:18:47.303Z,10.2
2017-11-05T11:19:49.250Z,10
2017-11-05T11:20:51.223Z,10.2
2017-11-05T11:21:53.224Z,10.2
2017-11-05T11:22:55.221Z,10.3
2017-11-05T11:23:57.153Z,10.3
2017-11-05T11:24:59.114Z,10.3
2017-11-05T11:26:01.025Z,10.2
2017-11-05T11:27:02.971Z,10
2017-11-05T11:28:04.940Z,10.1
2017-11-05T11:29:06.892Z,10.1
2017-11-05T11:30:08.757Z,9.8
2017-11-05T11:31:10.672Z,9.9
2017-11-05T11:32:12.828Z,9.9
2017-11-05T11:33:14.838Z,9.9
2017-11-05T11:34:16.775Z,10
2017-11-05T11:35:18.771Z,10.1
2017-11-05T11:36:20.710Z,9.9
2017-11-05T11:37:22.883Z,10.1
2017-11-05T11:38:24.958Z,10.1
2017-11-05T11:39:26.868Z,9.9
2017-11-05T11:40:28.790Z,9.8
2017-11-05T11:41:30.721Z,10.1
2017-11-05T11:42:32.648Z,10
2017-11-05T11:43:34.609Z,9.9
2017-11-05T11:44:36.642Z,10
2017-11-05T11:45:38.552Z,10.2
2017-11-05T11:46:40.526Z,10.2
2017-11-05T11:47:42.583Z,10.2
2017-11-05T11:48:44.525Z,10.3
2017-11-05T11:49:47.298Z,10
2017-11-05T11:50:49.265Z,10.1
2017-11-05T11:51:51.468Z,10.2
2017-11-05T11:52:53.447Z,9.9
2017-11-05T11:53:55.426Z,10.1
2017-11-05T11:54:57.414Z,10
2017-11-05T11:55:59.361Z,10
2017-11-05T11:57:01.348Z,10.1
2017-11-05T11:58:03.292Z,10.2
2017-11-05T11:59:05.365Z,10.1
2017-11-05T12:00:07.439Z,10.2
2017-11-05T12:01:09.406Z,10.3
2017-11-05T12:02:11.474Z,10.3
2017-11-05T12:03:13.456Z,10.1
2017-11-05T12:04:15.426Z,10
2017-11-05T12:05:17.528Z,10.2
2017-11-05T12:06:19.666Z,10.2
2017-11-05T12:07:21.605Z,10.2
2017-11-05T12:08:23.602Z,10.3
2017-11-05T12:09:25.805Z,10.1
2017-11-05T12:10:27.843Z,10.1
2017-11-05T12:11:29.884Z,10.2
2017-11-05T12:12:31.874Z,10.1
2017-11-05T12:13:34.137Z,10
2017-11-05T12:14:36.131Z,10.1
2017-11-05T12:15:38.156Z,10.2
2017-11-05T12:16:40.201Z,10.3
2017-11-05T12:17:42.321Z,10.2
2017-11-05T12:18:44.338Z,10.2
2017-11-05T12:19:46.301Z,10.1
2017-11-05T12:20:48.351Z,10.1
2017-11-05T12:21:50.309Z,10.1
2017-11-05T12:22:52.268Z,10.1
2017-11-05T12:23:54.333Z,10.1
2017-11-05T12:24:56.271Z,10.1
2017-11-05T12:25:58.290Z,10
2017-11-05T12:27:00.339Z,10
2017-11-05T12:28:02.409Z,10.1
2017-11-05T12:29:04.433Z,10.2
2017-11-05T12:30:06.521Z,10.2
2017-11-05T12:31:08.606Z,10
2017-11-05T12:32:10.876Z,10.1
2017-11-05T12:33:12.875Z,10.2
2017-11-05T12:34:15.116Z,10.2
2017-11-05T12:35:17.092Z,10
2017-11-05T12:36:19.133Z,10.1
2017-11-05T12:37:21.189Z,10
2017-11-05T12:38:23.138Z,10
2017-11-05T12:39:25.177Z,10.1
2017-11-05T12:40:27.240Z,10
2017-11-05T12:41:29.350Z,9.9
2017-11-05T12:42:31.468Z,9.8
2017-11-05T12:43:33.686Z,9.8
2017-11-05T12:44:35.798Z,9.7
2017-11-05T12:45:37.881Z,9.9
2017-11-05T12:46:39.938Z,9.9
2017-11-05T12:47:41.892Z,9.7
2017-11-05T12:48:43.844Z,9.8
2017-11-05T12:49:45.829Z,9.8
2017-11-05T12:50:47.823Z,9.7
2017-11-05T12:51:49.940Z,9.9
2017-11-05T12:52:51.889Z,10
2017-11-05T12:53:53.962Z,10
2017-11-05T12:54:56.154Z,9.6
2017-11-05T12:55:58.076Z,9.6
2017-11-05T12:57:00.144Z,9.6
2017-11-05T12:58:02.267Z,9.8
2017-11-05T12:59:04.243Z,9.8
2017-11-05T13:00:06.239Z,9.8
2017-11-05T13:01:08.143Z,9.9
2017-11-05T13:02:10.155Z,9.8
2017-11-05T13:03:15.870Z,9.9
2017-11-05T13:04:17.735Z,9.6
2017-11-05T13:05:19.700Z,9.6
2017-11-05T13:06:21.656Z,9.7
2017-11-05T13:07:23.609Z,9.8
2017-11-05T13:08:25.526Z,9.8
2017-11-05T13:09:27.456Z,9.8
2017-11-05T13:10:29.552Z,9.8
2017-11-05T13:11:31.582Z,9.7
2017-11-05T13:12:33.553Z,9.8
2017-11-05T13:13:35.563Z,9.6
2017-11-05T13:14:37.538Z,9.7
2017-11-05T13:15:39.501Z,9.7
2017-11-05T13:16:41.532Z,9.5
2017-11-05T13:17:43.559Z,9.5
2017-11-05T13:18:45.555Z,9.4
2017-11-05T13:19:47.514Z,9.6
2017-11-05T13:20:49.484Z,9.5
2017-11-05T13:21:51.446Z,9.5
2017-11-05T13:22:53.413Z,9.6
2017-11-05T13:23:55.323Z,9.7
2017-11-05T13:24:57.279Z,9.8
2017-11-05T13:25:59.262Z,9.6
2017-11-05T13:27:01.211Z,9.6
2017-11-05T13:28:03.193Z,9.3
2017-11-05T13:29:05.190Z,9.4
2017-11-05T13:30:07.220Z,9.1
2017-11-05T13:31:09.213Z,9.1
2017-11-05T13:32:11.141Z,9.2
2017-11-05T13:33:13.125Z,9.2
2017-11-05T13:34:15.027Z,9.1
2017-11-05T13:35:17.021Z,9
2017-11-05T13:36:19.027Z,9.1
2017-11-05T13:37:21.200Z,8.7
2017-11-05T13:38:23.365Z,9
2017-11-05T13:39:25.415Z,9
2017-11-05T13:40:27.371Z,9.1
2017-11-05T13:41:29.376Z,9
2017-11-05T13:42:31.446Z,9.1
2017-11-05T13:43:33.451Z,9.2
2017-11-05T13:44:35.573Z,9.1
2017-11-05T13:45:37.638Z,9
2017-11-05T13:46:39.661Z,9.1
2017-11-05T13:47:41.614Z,8.8
2017-11-05T13:48:43.682Z,8.9
2017-11-05T13:49:45.687Z,9.1
2017-11-05T13:50:47.688Z,9
2017-11-05T13:51:49.615Z,8.9
2017-11-05T13:52:51.587Z,9
2017-11-05T13:53:54.012Z,9
2017-11-05T13:54:55.997Z,8.9
2017-11-05T13:55:57.983Z,8.8
2017-11-05T13:56:59.999Z,8.8